sensor_id;sensor_type;location;lat;lon;timestamp;pressure;altitude;pressure_sealevel;temperature;humidity
74856;BME280;63407;53.018;8.690;2022-09-16T04:01:20;100629.09;;;17.23;62.23
74856;BME280;63407;53.018;8.690;2022-09-16T04:03:46;100629.09;;;17.23;62.38
74856;BME280;63407;53.018;8.690;2022-09-16T04:06:11;100623.66;;;17.23;62.25
74856;BME280;63407;53.018;8.690;2022-09-16T04:08:36;100627.44;;;17.22;62.28
74856;BME280;63407;53.018;8.690;2022-09-16T04:11:05;100626.56;;;17.21;62.50
74856;BME280;63407;53.018;8.690;2022-09-16T04:13:32;100632.84;;;17.22;62.51
74856;BME280;63407;53.018;8.690;2022-09-16T04:15:58;100627.44;;;17.22;62.49
74856;BME280;63407;53.018;8.690;2022-09-16T04:18:24;100626.56;;;17.21;62.30
74856;BME280;63407;53.018;8.690;2022-09-16T04:20:54;100627.44;;;17.22;62.30
74856;BME280;63407;53.018;8.690;2022-09-16T04:23:22;100608.50;;;17.22;62.68
74856;BME280;63407;53.018;8.690;2022-09-16T04:25:59;100613.28;;;17.20;62.83
74856;BME280;63407;53.018;8.690;2022-09-16T04:28:26;100627.84;;;17.19;62.90
74856;BME280;63407;53.018;8.690;2022-09-16T04:30:51;100630.97;;;17.16;63.00
74856;BME280;63407;53.018;8.690;2022-09-16T04:33:17;100625.66;;;16.69;62.41
74856;BME280;63407;53.018;8.690;2022-09-16T04:35:43;100632.31;;;16.27;63.23
74856;BME280;63407;53.018;8.690;2022-09-16T04:38:09;100633.38;;;16.26;63.17
74856;BME280;63407;53.018;8.690;2022-09-16T04:40:34;100621.09;;;16.03;64.23
74856;BME280;63407;53.018;8.690;2022-09-16T04:43:00;100624.19;;;16.33;62.94
74856;BME280;63407;53.018;8.690;2022-09-16T04:45:25;100630.00;;;16.50;63.02
74856;BME280;63407;53.018;8.690;2022-09-16T04:47:55;100626.88;;;15.93;62.88
74856;BME280;63407;53.018;8.690;2022-09-16T04:50:22;100628.28;;;15.69;63.91
74856;BME280;63407;53.018;8.690;2022-09-16T04:52:47;100621.72;;;16.05;62.95
74856;BME280;63407;53.018;8.690;2022-09-16T04:55:13;100616.19;;;15.59;63.90
74856;BME280;63407;53.018;8.690;2022-09-16T04:57:38;100613.66;;;15.44;64.39
74856;BME280;63407;53.018;8.690;2022-09-16T05:00:04;100616.25;;;15.72;63.28
74856;BME280;63407;53.018;8.690;2022-09-16T05:02:30;100617.81;;;15.53;63.50
74856;BME280;63407;53.018;8.690;2022-09-16T05:04:55;100621.09;;;15.42;63.86
74856;BME280;63407;53.018;8.690;2022-09-16T05:07:21;100612.28;;;15.13;65.10
74856;BME280;63407;53.018;8.690;2022-09-16T05:09:46;100609.91;;;15.45;64.09
74856;BME280;63407;53.018;8.690;2022-09-16T05:12:11;100617.66;;;15.13;64.67
74856;BME280;63407;53.018;8.690;2022-09-16T05:14:37;100614.63;;;15.29;63.87
74856;BME280;63407;53.018;8.690;2022-09-16T05:17:02;100619.81;;;15.31;64.35
74856;BME280;63407;53.018;8.690;2022-09-16T05:19:28;100612.75;;;15.23;64.60
74856;BME280;63407;53.018;8.690;2022-09-16T05:21:53;100615.69;;;15.42;63.84
74856;BME280;63407;53.018;8.690;2022-09-16T05:24:19;100614.47;;;15.38;64.05
74856;BME280;63407;53.018;8.690;2022-09-16T05:26:44;100615.38;;;15.17;64.29
74856;BME280;63407;53.018;8.690;2022-09-16T05:29:14;100625.91;;;15.05;64.62
74856;BME280;63407;53.018;8.690;2022-09-16T05:31:42;100620.59;;;15.18;64.82
74856;BME280;63407;53.018;8.690;2022-09-16T05:34:16;100611.88;;;15.16;65.03
74856;BME280;63407;53.018;8.690;2022-09-16T05:36:43;100609.00;;;15.24;64.66
74856;BME280;63407;53.018;8.690;2022-09-16T05:39:12;100605.63;;;15.09;65.38
74856;BME280;63407;53.018;8.690;2022-09-16T05:41:38;100613.06;;;15.00;65.59
74856;BME280;63407;53.018;8.690;2022-09-16T05:44:04;100605.81;;;15.07;65.72
74856;BME280;63407;53.018;8.690;2022-09-16T05:46:31;100601.38;;;15.35;65.29
74856;BME280;63407;53.018;8.690;2022-09-16T05:48:56;100614.53;;;15.64;63.64
74856;BME280;63407;53.018;8.690;2022-09-16T05:51:23;100605.47;;;15.79;63.49
74856;BME280;63407;53.018;8.690;2022-09-16T05:53:49;100603.00;;;15.90;63.22
74856;BME280;63407;53.018;8.690;2022-09-16T05:56:18;100605.31;;;16.00;62.97
74856;BME280;63407;53.018;8.690;2022-09-16T05:58:44;100603.66;;;16.06;62.67
74856;BME280;63407;53.018;8.690;2022-09-16T06:01:18;100610.09;;;16.11;62.65
74856;BME280;63407;53.018;8.690;2022-09-16T06:03:45;100602.19;;;16.16;62.58
74856;BME280;63407;53.018;8.690;2022-09-16T06:08:46;100606.34;;;16.26;62.50
74856;BME280;63407;53.018;8.690;2022-09-16T06:11:11;100609.28;;;16.31;62.44
74856;BME280;63407;53.018;8.690;2022-09-16T06:13:38;100603.44;;;16.34;62.39
74856;BME280;63407;53.018;8.690;2022-09-16T06:16:05;100616.53;;;16.37;62.37
74856;BME280;63407;53.018;8.690;2022-09-16T06:18:31;100612.59;;;16.39;62.29
74856;BME280;63407;53.018;8.690;2022-09-16T06:21:04;100611.75;;;16.39;62.25
74856;BME280;63407;53.018;8.690;2022-09-16T06:23:30;100619.00;;;16.38;62.28
74856;BME280;63407;53.018;8.690;2022-09-16T06:26:03;100612.38;;;16.41;62.28
74856;BME280;63407;53.018;8.690;2022-09-16T06:28:30;100609.06;;;16.46;62.10
74856;BME280;63407;53.018;8.690;2022-09-16T06:31:15;100612.34;;;16.48;62.27
74856;BME280;63407;53.018;8.690;2022-09-16T06:33:42;100605.69;;;16.50;62.15
74856;BME280;63407;53.018;8.690;2022-09-16T06:36:12;100607.97;;;16.53;62.14
74856;BME280;63407;53.018;8.690;2022-09-16T06:38:38;100605.91;;;16.55;62.19
74856;BME280;63407;53.018;8.690;2022-09-16T06:41:05;100610.06;;;16.58;62.06
74856;BME280;63407;53.018;8.690;2022-09-16T06:43:31;100608.81;;;16.60;62.11
74856;BME280;63407;53.018;8.690;2022-09-16T06:46:02;100610.47;;;16.61;61.92
74856;BME280;63407;53.018;8.690;2022-09-16T06:48:30;100603.81;;;16.64;61.82
74856;BME280;63407;53.018;8.690;2022-09-16T06:51:03;100604.66;;;16.64;61.74
74856;BME280;63407;53.018;8.690;2022-09-16T06:53:30;100611.50;;;16.67;61.79
74856;BME280;63407;53.018;8.690;2022-09-16T06:56:00;100602.16;;;16.70;61.78
74856;BME280;63407;53.018;8.690;2022-09-16T06:58:26;100592.38;;;16.75;61.40
74856;BME280;63407;53.018;8.690;2022-09-16T07:00:54;100592.19;;;16.77;61.18
74856;BME280;63407;53.018;8.690;2022-09-16T07:03:20;100593.63;;;16.73;61.30
74856;BME280;63407;53.018;8.690;2022-09-16T07:05:57;100589.25;;;16.72;61.55
74856;BME280;63407;53.018;8.690;2022-09-16T07:08:24;100602.16;;;16.70;61.34
74856;BME280;63407;53.018;8.690;2022-09-16T07:11:20;100595.91;;;16.69;61.53
74856;BME280;63407;53.018;8.690;2022-09-16T07:13:47;100592.16;;;16.70;61.43
74856;BME280;63407;53.018;8.690;2022-09-16T07:16:15;100601.72;;;16.73;61.19
74856;BME280;63407;53.018;8.690;2022-09-16T07:18:42;100596.78;;;16.76;61.07
74856;BME280;63407;53.018;8.690;2022-09-16T07:21:11;100598.81;;;16.74;60.85
74856;BME280;63407;53.018;8.690;2022-09-16T07:23:38;100596.56;;;16.78;60.56
74856;BME280;63407;53.018;8.690;2022-09-16T07:26:09;100593.03;;;16.77;60.58
74856;BME280;63407;53.018;8.690;2022-09-16T07:28:36;100600.91;;;16.79;60.37
74856;BME280;63407;53.018;8.690;2022-09-16T07:31:04;100604.47;;;16.79;60.34
74856;BME280;63407;53.018;8.690;2022-09-16T07:33:30;100599.03;;;16.86;59.94
74856;BME280;63407;53.018;8.690;2022-09-16T07:35:59;100606.72;;;16.89;59.81
74856;BME280;63407;53.018;8.690;2022-09-16T07:38:25;100609.22;;;16.91;59.66
74856;BME280;63407;53.018;8.690;2022-09-16T07:40:51;100605.25;;;16.93;59.71
74856;BME280;63407;53.018;8.690;2022-09-16T07:43:16;100602.53;;;16.93;59.59
74856;BME280;63407;53.018;8.690;2022-09-16T07:45:42;100608.38;;;16.90;59.60
74856;BME280;63407;53.018;8.690;2022-09-16T07:48:07;100599.22;;;16.91;59.51
74856;BME280;63407;53.018;8.690;2022-09-16T07:50:33;100602.75;;;16.92;59.55
74856;BME280;63407;53.018;8.690;2022-09-16T07:52:59;100604.63;;;16.91;59.82
74856;BME280;63407;53.018;8.690;2022-09-16T07:55:24;100603.16;;;16.95;59.56
74856;BME280;63407;53.018;8.690;2022-09-16T07:57:52;100606.25;;;16.99;59.89
74856;BME280;63407;53.018;8.690;2022-09-16T08:00:17;100603.34;;;17.00;59.73
74856;BME280;63407;53.018;8.690;2022-09-16T08:02:43;100617.50;;;17.02;59.91
74856;BME280;63407;53.018;8.690;2022-09-16T08:05:08;100618.09;;;17.04;59.82
74856;BME280;63407;53.018;8.690;2022-09-16T08:07:35;100610.63;;;17.06;59.85
74856;BME280;63407;53.018;8.690;2022-09-16T08:10:01;100606.84;;;17.07;59.81
74856;BME280;63407;53.018;8.690;2022-09-16T08:12:27;100610.00;;;17.11;60.04
74856;BME280;63407;53.018;8.690;2022-09-16T08:14:57;100607.88;;;17.13;60.00
74856;BME280;63407;53.018;8.690;2022-09-16T08:17:24;100602.47;;;17.13;59.99
74856;BME280;63407;53.018;8.690;2022-09-16T08:19:50;100598.31;;;17.17;59.99
74856;BME280;63407;53.018;8.690;2022-09-16T08:22:15;100595.38;;;17.19;60.00
74856;BME280;63407;53.018;8.690;2022-09-16T08:24:41;100597.88;;;17.20;60.17
74856;BME280;63407;53.018;8.690;2022-09-16T08:27:06;100606.63;;;17.22;60.13
74856;BME280;63407;53.018;8.690;2022-09-16T08:29:32;100605.56;;;17.23;60.25
74856;BME280;63407;53.018;8.690;2022-09-16T08:31:57;100608.91;;;17.25;60.22
74856;BME280;63407;53.018;8.690;2022-09-16T08:34:23;100603.25;;;17.27;60.25
74856;BME280;63407;53.018;8.690;2022-09-16T08:36:48;100594.13;;;17.28;60.16
74856;BME280;63407;53.018;8.690;2022-09-16T08:39:13;100608.22;;;17.30;60.44
74856;BME280;63407;53.018;8.690;2022-09-16T08:41:53;100603.69;;;17.30;60.50
74856;BME280;63407;53.018;8.690;2022-09-16T08:44:33;100599.69;;;17.33;60.40
74856;BME280;63407;53.018;8.690;2022-09-16T08:47:04;100604.91;;;17.35;60.50
74856;BME280;63407;53.018;8.690;2022-09-16T08:49:42;100593.63;;;17.38;60.60
74856;BME280;63407;53.018;8.690;2022-09-16T08:52:12;100588.22;;;17.38;60.53
74856;BME280;63407;53.018;8.690;2022-09-16T08:54:46;100597.78;;;17.40;60.53
74856;BME280;63407;53.018;8.690;2022-09-16T08:57:19;100590.31;;;17.42;60.56
74856;BME280;63407;53.018;8.690;2022-09-16T08:59:49;100591.94;;;17.43;60.75
74856;BME280;63407;53.018;8.690;2022-09-16T09:05:01;100591.50;;;17.46;60.58
74856;BME280;63407;53.018;8.690;2022-09-16T09:10:30;100595.22;;;17.52;60.64
74856;BME280;63407;53.018;8.690;2022-09-16T09:13:20;100605.41;;;17.57;60.57
74856;BME280;63407;53.018;8.690;2022-09-16T09:18:53;100605.59;;;17.62;60.48
74856;BME280;63407;53.018;8.690;2022-09-16T09:24:26;100608.91;;;17.64;60.55
74856;BME280;63407;53.018;8.690;2022-09-16T09:30:10;100608.66;;;17.72;60.76
74856;BME280;63407;53.018;8.690;2022-09-16T09:32:33;100605.94;;;17.72;60.83
74856;BME280;63407;53.018;8.690;2022-09-16T09:40:24;100592.59;;;17.77;61.15
74856;BME280;63407;53.018;8.690;2022-09-16T09:43:09;100583.00;;;17.81;60.93
74856;BME280;63407;53.018;8.690;2022-09-16T09:45:44;100585.88;;;17.86;60.83
74856;BME280;63407;53.018;8.690;2022-09-16T09:48:28;100585.38;;;18.03;60.31
74856;BME280;63407;53.018;8.690;2022-09-16T09:50:59;100573.28;;;17.98;60.44
74856;BME280;63407;53.018;8.690;2022-09-16T09:53:36;100585.63;;;17.94;60.66
74856;BME280;63407;53.018;8.690;2022-09-16T09:56:26;100574.34;;;17.97;60.65
74856;BME280;63407;53.018;8.690;2022-09-16T10:01:19;100581.28;;;17.93;60.65
74856;BME280;63407;53.018;8.690;2022-09-16T10:03:47;100580.03;;;17.89;60.74
74856;BME280;63407;53.018;8.690;2022-09-16T10:06:13;100560.81;;;17.97;60.32
74856;BME280;63407;53.018;8.690;2022-09-16T10:08:50;100571.22;;;18.01;60.22
74856;BME280;63407;53.018;8.690;2022-09-16T10:11:22;100562.06;;;18.02;59.78
74856;BME280;63407;53.018;8.690;2022-09-16T10:13:51;100567.03;;;18.05;56.27
74856;BME280;63407;53.018;8.690;2022-09-16T10:16:19;100562.91;;;17.95;55.74
74856;BME280;63407;53.018;8.690;2022-09-16T10:19:02;100560.53;;;17.81;55.07
74856;BME280;63407;53.018;8.690;2022-09-16T10:21:43;100566.06;;;17.92;52.57
74856;BME280;63407;53.018;8.690;2022-09-16T10:24:36;100556.47;;;17.96;52.23
74856;BME280;63407;53.018;8.690;2022-09-16T10:27:25;100575.34;;;18.03;52.51
74856;BME280;63407;53.018;8.690;2022-09-16T10:30:18;100568.22;;;18.09;53.52
74856;BME280;63407;53.018;8.690;2022-09-16T10:32:45;100553.97;;;18.20;52.98
74856;BME280;63407;53.018;8.690;2022-09-16T10:35:17;100552.31;;;18.19;50.48
74856;BME280;63407;53.018;8.690;2022-09-16T10:37:50;100547.66;;;18.26;50.02
74856;BME280;63407;53.018;8.690;2022-09-16T10:40:16;100565.47;;;18.15;50.54
74856;BME280;63407;53.018;8.690;2022-09-16T10:42:47;100564.00;;;18.13;51.64
74856;BME280;63407;53.018;8.690;2022-09-16T10:45:18;100563.91;;;18.26;51.42
74856;BME280;63407;53.018;8.690;2022-09-16T10:47:53;100573.28;;;18.30;51.60
74856;BME280;63407;53.018;8.690;2022-09-16T10:50:19;100566.91;;;18.18;52.19
74856;BME280;63407;53.018;8.690;2022-09-16T10:52:46;100557.31;;;18.15;52.71
74856;BME280;63407;53.018;8.690;2022-09-16T10:57:45;100560.03;;;18.40;52.17
74856;BME280;63407;53.018;8.690;2022-09-16T11:00:19;100578.25;;;18.52;52.27
74856;BME280;63407;53.018;8.690;2022-09-16T11:08:51;100565.97;;;19.11;50.99
74856;BME280;63407;53.018;8.690;2022-09-16T11:17:16;100530.72;;;22.42;42.55
74856;BME280;63407;53.018;8.690;2022-09-16T11:19:58;100538.56;;;23.98;39.34
74856;BME280;63407;53.018;8.690;2022-09-16T11:22:42;100539.59;;;24.72;37.80
74856;BME280;63407;53.018;8.690;2022-09-16T11:31:04;100556.88;;;25.55;34.91
74856;BME280;63407;53.018;8.690;2022-09-16T11:33:37;100554.44;;;26.41;34.29
74856;BME280;63407;53.018;8.690;2022-09-16T11:36:10;100540.50;;;27.62;31.62
74856;BME280;63407;53.018;8.690;2022-09-16T11:55:35;100528.31;;;24.20;36.95
74856;BME280;63407;53.018;8.690;2022-09-16T11:58:32;100513.63;;;25.88;34.17
74856;BME280;63407;53.018;8.690;2022-09-16T12:01:11;100519.03;;;28.03;30.96
74856;BME280;63407;53.018;8.690;2022-09-16T12:03:54;100511.34;;;26.62;32.36
74856;BME280;63407;53.018;8.690;2022-09-16T12:06:25;100503.13;;;24.56;37.05
74856;BME280;63407;53.018;8.690;2022-09-16T12:08:57;100499.34;;;25.50;35.55
74856;BME280;63407;53.018;8.690;2022-09-16T12:11:37;100504.78;;;26.53;34.23
74856;BME280;63407;53.018;8.690;2022-09-16T12:15:12;100491.06;;;30.47;27.10
74856;BME280;63407;53.018;8.690;2022-09-16T12:17:21;100505.13;;;24.71;36.58
74856;BME280;63407;53.018;8.690;2022-09-16T12:19:53;100491.03;;;28.74;30.36
74856;BME280;63407;53.018;8.690;2022-09-16T12:22:22;100493.00;;;27.56;31.37
74856;BME280;63407;53.018;8.690;2022-09-16T12:25:02;100483.25;;;26.85;33.04
74856;BME280;63407;53.018;8.690;2022-09-16T12:28:00;100479.88;;;29.27;28.95
74856;BME280;63407;53.018;8.690;2022-09-16T12:30:36;100471.25;;;24.97;36.19
74856;BME280;63407;53.018;8.690;2022-09-16T12:33:21;100478.44;;;26.41;34.10
74856;BME280;63407;53.018;8.690;2022-09-16T12:35:57;100487.50;;;24.51;37.45
74856;BME280;63407;53.018;8.690;2022-09-16T12:38:24;100494.31;;;24.06;38.02
74856;BME280;63407;53.018;8.690;2022-09-16T12:46:30;100495.25;;;21.70;43.93
74856;BME280;63407;53.018;8.690;2022-09-16T12:52:55;100487.91;;;27.34;32.48
74856;BME280;63407;53.018;8.690;2022-09-16T13:01:08;100497.50;;;26.87;32.88
74856;BME280;63407;53.018;8.690;2022-09-16T13:03:40;100470.22;;;26.41;34.02
74856;BME280;63407;53.018;8.690;2022-09-16T13:06:28;100485.16;;;24.28;37.71
74856;BME280;63407;53.018;8.690;2022-09-16T13:08:55;100474.66;;;25.25;36.25
74856;BME280;63407;53.018;8.690;2022-09-16T13:11:26;100466.53;;;27.26;32.36
74856;BME280;63407;53.018;8.690;2022-09-16T13:13:55;100452.06;;;26.45;33.72
74856;BME280;63407;53.018;8.690;2022-09-16T13:16:35;100451.25;;;24.91;36.53
74856;BME280;63407;53.018;8.690;2022-09-16T13:22:03;100444.88;;;22.67;41.66
74856;BME280;63407;53.018;8.690;2022-09-16T13:24:39;100435.78;;;22.17;42.90
74856;BME280;63407;53.018;8.690;2022-09-16T13:27:30;100456.63;;;21.73;44.37
74856;BME280;63407;53.018;8.690;2022-09-16T13:32:37;100499.53;;;21.08;46.06
74856;BME280;63407;53.018;8.690;2022-09-16T13:37:52;100479.72;;;20.56;47.55
74856;BME280;63407;53.018;8.690;2022-09-16T13:42:47;100468.03;;;20.55;47.79
74856;BME280;63407;53.018;8.690;2022-09-16T13:45:41;100475.81;;;20.40;48.19
74856;BME280;63407;53.018;8.690;2022-09-16T13:48:17;100466.84;;;20.28;48.72
74856;BME280;63407;53.018;8.690;2022-09-16T13:50:48;100457.88;;;20.15;49.10
74856;BME280;63407;53.018;8.690;2022-09-16T13:53:35;100466.50;;;20.00;49.69
74856;BME280;63407;53.018;8.690;2022-09-16T14:01:54;100457.25;;;19.66;50.60
74856;BME280;63407;53.018;8.690;2022-09-16T14:04:30;100468.06;;;19.54;51.28
74856;BME280;63407;53.018;8.690;2022-09-16T14:10:08;100456.69;;;19.34;51.90
74856;BME280;63407;53.018;8.690;2022-09-16T14:12:56;100458.31;;;19.23;52.47
74856;BME280;63407;53.018;8.690;2022-09-16T14:15:24;100472.34;;;19.20;52.38
74856;BME280;63407;53.018;8.690;2022-09-16T14:17:54;100466.56;;;19.17;52.41
74856;BME280;63407;53.018;8.690;2022-09-16T14:20:22;100469.94;;;19.12;52.45
74856;BME280;63407;53.018;8.690;2022-09-16T14:23:03;100466.53;;;19.05;52.92
74856;BME280;63407;53.018;8.690;2022-09-16T14:25:34;100469.09;;;19.00;53.20
74856;BME280;63407;53.018;8.690;2022-09-16T14:31:06;100469.41;;;18.92;53.28
74856;BME280;63407;53.018;8.690;2022-09-16T14:33:35;100464.44;;;18.88;53.66
74856;BME280;63407;53.018;8.690;2022-09-16T14:36:16;100463.25;;;18.84;53.51
74856;BME280;63407;53.018;8.690;2022-09-16T14:41:42;100473.94;;;18.79;53.68
74856;BME280;63407;53.018;8.690;2022-09-16T14:44:20;100462.50;;;18.77;53.66
74856;BME280;63407;53.018;8.690;2022-09-16T14:46:58;100477.53;;;18.73;54.02
74856;BME280;63407;53.018;8.690;2022-09-16T14:49:27;100480.72;;;18.70;54.03
74856;BME280;63407;53.018;8.690;2022-09-16T14:51:57;100475.13;;;18.65;54.28
74856;BME280;63407;53.018;8.690;2022-09-16T14:54:25;100487.72;;;18.59;54.47
74856;BME280;63407;53.018;8.690;2022-09-16T14:57:05;100510.88;;;18.55;54.38
74856;BME280;63407;53.018;8.690;2022-09-16T14:59:36;100471.53;;;18.53;54.73
74856;BME280;63407;53.018;8.690;2022-09-16T15:02:12;100473.84;;;18.49;54.65
74856;BME280;63407;53.018;8.690;2022-09-16T15:04:44;100452.41;;;18.48;54.90
74856;BME280;63407;53.018;8.690;2022-09-16T15:07:19;100462.03;;;18.43;55.04
74856;BME280;63407;53.018;8.690;2022-09-16T15:12:32;100477.09;;;18.39;55.08
74856;BME280;63407;53.018;8.690;2022-09-16T15:15:03;100485.06;;;18.34;55.25
74856;BME280;63407;53.018;8.690;2022-09-16T15:17:29;100485.50;;;18.31;55.52
74856;BME280;63407;53.018;8.690;2022-09-16T15:19:58;100487.59;;;18.29;55.67
74856;BME280;63407;53.018;8.690;2022-09-16T15:22:25;100479.72;;;18.28;55.77
74856;BME280;63407;53.018;8.690;2022-09-16T15:24:55;100481.00;;;18.25;55.74
74856;BME280;63407;53.018;8.690;2022-09-16T15:27:29;100466.00;;;18.23;55.90
74856;BME280;63407;53.018;8.690;2022-09-16T15:29:58;100477.06;;;18.21;56.08
74856;BME280;63407;53.018;8.690;2022-09-16T15:32:27;100491.06;;;18.18;56.23
74856;BME280;63407;53.018;8.690;2022-09-16T15:35:11;100483.16;;;18.16;56.26
74856;BME280;63407;53.018;8.690;2022-09-16T15:37:38;100494.44;;;18.13;56.50
74856;BME280;63407;53.018;8.690;2022-09-16T15:43:25;100477.22;;;18.08;56.59
74856;BME280;63407;53.018;8.690;2022-09-16T15:46:00;100476.59;;;18.06;56.82
74856;BME280;63407;53.018;8.690;2022-09-16T15:48:33;100474.09;;;18.04;57.06
74856;BME280;63407;53.018;8.690;2022-09-16T15:51:04;100483.28;;;18.03;57.20
74856;BME280;63407;53.018;8.690;2022-09-16T15:55:59;100490.41;;;17.97;57.49
74856;BME280;63407;53.018;8.690;2022-09-16T16:01:13;100474.16;;;17.97;57.60
74856;BME280;63407;53.018;8.690;2022-09-16T16:03:50;100472.53;;;17.96;57.59
74856;BME280;63407;53.018;8.690;2022-09-16T16:06:17;100472.53;;;17.96;57.70
74856;BME280;63407;53.018;8.690;2022-09-16T16:08:50;100456.72;;;17.93;58.02
74856;BME280;63407;53.018;8.690;2022-09-16T16:11:20;100458.81;;;17.91;58.04
74856;BME280;63407;53.018;8.690;2022-09-16T16:13:46;100460.47;;;17.92;58.08
74856;BME280;63407;53.018;8.690;2022-09-16T16:16:14;100458.81;;;17.91;58.20
74856;BME280;63407;53.018;8.690;2022-09-16T16:18:42;100447.16;;;17.91;58.53
74856;BME280;63407;53.018;8.690;2022-09-16T16:21:11;100455.50;;;17.89;58.63
74856;BME280;63407;53.018;8.690;2022-09-16T16:23:37;100448.44;;;17.88;58.97
74856;BME280;63407;53.018;8.690;2022-09-16T16:26:03;100453.84;;;17.88;59.16
74856;BME280;63407;53.018;8.690;2022-09-16T16:28:29;100453.84;;;17.88;59.48
74856;BME280;63407;53.018;8.690;2022-09-16T16:31:16;100446.38;;;17.84;59.83
74856;BME280;63407;53.018;8.690;2022-09-16T16:33:46;100453.22;;;17.86;59.59
74856;BME280;63407;53.018;8.690;2022-09-16T16:36:16;100456.38;;;17.83;59.86
74856;BME280;63407;53.018;8.690;2022-09-16T16:38:42;100460.75;;;17.84;59.88
74856;BME280;63407;53.018;8.690;2022-09-16T16:41:08;100463.88;;;17.81;59.98
74856;BME280;63407;53.018;8.690;2022-09-16T16:43:34;100452.25;;;17.81;59.99
74856;BME280;63407;53.018;8.690;2022-09-16T16:46:00;100449.78;;;17.79;59.76
74856;BME280;63407;53.018;8.690;2022-09-16T16:48:26;100448.09;;;17.78;59.87
74856;BME280;63407;53.018;8.690;2022-09-16T16:50:57;100451.00;;;17.76;59.90
74856;BME280;63407;53.018;8.690;2022-09-16T16:53:23;100450.59;;;17.73;60.01
74856;BME280;63407;53.018;8.690;2022-09-16T16:55:48;100453.53;;;17.71;59.96
74856;BME280;63407;53.018;8.690;2022-09-16T16:58:14;100446.25;;;17.72;60.04
74856;BME280;63407;53.018;8.690;2022-09-16T17:00:40;100452.72;;;17.71;60.18
74856;BME280;63407;53.018;8.690;2022-09-16T17:03:05;100452.72;;;17.71;60.18
74856;BME280;63407;53.018;8.690;2022-09-16T17:05:31;100469.41;;;17.68;60.24
74856;BME280;63407;53.018;8.690;2022-09-16T17:07:56;100483.75;;;17.68;60.29
74856;BME280;63407;53.018;8.690;2022-09-16T17:10:22;100480.22;;;17.68;60.42
74856;BME280;63407;53.018;8.690;2022-09-16T17:12:47;100467.72;;;17.67;60.33
74856;BME280;63407;53.018;8.690;2022-09-16T17:15:13;100479.63;;;17.66;60.33
74856;BME280;63407;53.018;8.690;2022-09-16T17:17:38;100479.00;;;17.64;60.59
74856;BME280;63407;53.018;8.690;2022-09-16T17:20:05;100486.09;;;17.65;60.42
74856;BME280;63407;53.018;8.690;2022-09-16T17:22:31;100515.00;;;17.64;60.48
74856;BME280;63407;53.018;8.690;2022-09-16T17:24:56;100523.97;;;17.65;60.36
74856;BME280;63407;53.018;8.690;2022-09-16T17:27:22;100527.94;;;17.62;60.51
74856;BME280;63407;53.018;8.690;2022-09-16T17:29:49;100525.25;;;17.62;60.51
74856;BME280;63407;53.018;8.690;2022-09-16T17:32:14;100522.75;;;17.61;60.49
74856;BME280;63407;53.018;8.690;2022-09-16T17:34:40;100531.91;;;17.60;60.58
74856;BME280;63407;53.018;8.690;2022-09-16T17:37:06;100512.34;;;17.58;60.78
74856;BME280;63407;53.018;8.690;2022-09-16T17:39:32;100494.47;;;17.57;60.74
74856;BME280;63407;53.018;8.690;2022-09-16T17:41:58;100489.06;;;17.57;60.76
74856;BME280;63407;53.018;8.690;2022-09-16T17:44:24;100492.78;;;17.56;60.88
74856;BME280;63407;53.018;8.690;2022-09-16T17:46:50;100491.75;;;17.57;60.78
74856;BME280;63407;53.018;8.690;2022-09-16T17:49:23;100481.97;;;17.56;60.76
74856;BME280;63407;53.018;8.690;2022-09-16T17:51:49;100499.47;;;17.53;60.86
74856;BME280;63407;53.018;8.690;2022-09-16T17:54:15;100491.16;;;17.54;60.82
74856;BME280;63407;53.018;8.690;2022-09-16T17:56:41;100504.66;;;17.54;60.80
74856;BME280;63407;53.018;8.690;2022-09-16T17:59:07;100502.41;;;17.51;60.87
74856;BME280;63407;53.018;8.690;2022-09-16T18:01:33;100500.31;;;17.53;60.97
74856;BME280;63407;53.018;8.690;2022-09-16T18:03:59;100502.16;;;17.53;60.96
74856;BME280;63407;53.018;8.690;2022-09-16T18:06:38;100494.91;;;17.53;61.00
74856;BME280;63407;53.018;8.690;2022-09-16T18:09:04;100485.94;;;17.53;61.05
74856;BME280;63407;53.018;8.690;2022-09-16T18:11:32;100491.78;;;17.50;60.92
74856;BME280;63407;53.018;8.690;2022-09-16T18:14:00;100486.16;;;17.20;61.48
74856;BME280;63407;53.018;8.690;2022-09-16T18:16:27;100494.59;;;16.27;65.07
74856;BME280;63407;53.018;8.690;2022-09-16T18:18:55;100489.91;;;16.74;63.85
74856;BME280;63407;53.018;8.690;2022-09-16T18:21:22;100487.72;;;17.02;63.18
74856;BME280;63407;53.018;8.690;2022-09-16T18:23:52;100474.13;;;17.16;62.71
74856;BME280;63407;53.018;8.690;2022-09-16T18:26:18;100481.97;;;17.24;62.19
74856;BME280;63407;53.018;8.690;2022-09-16T18:28:45;100488.00;;;17.26;62.13
74856;BME280;63407;53.018;8.690;2022-09-16T18:31:13;100474.25;;;17.27;62.16
74856;BME280;63407;53.018;8.690;2022-09-16T18:33:39;100495.47;;;17.30;62.14
74856;BME280;63407;53.018;8.690;2022-09-16T18:36:13;100485.91;;;17.28;62.09
74856;BME280;63407;53.018;8.690;2022-09-16T18:38:39;100488.38;;;17.29;61.91
74856;BME280;63407;53.018;8.690;2022-09-16T18:41:13;100485.47;;;17.31;61.90
74856;BME280;63407;53.018;8.690;2022-09-16T18:43:40;100485.47;;;17.31;61.88
74856;BME280;63407;53.018;8.690;2022-09-16T18:46:13;100477.38;;;17.31;61.75
74856;BME280;63407;53.018;8.690;2022-09-16T18:48:40;100481.72;;;17.32;61.63
74856;BME280;63407;53.018;8.690;2022-09-16T18:51:23;100486.31;;;17.31;61.54
74856;BME280;63407;53.018;8.690;2022-09-16T18:53:52;100485.47;;;17.31;61.73
74856;BME280;63407;53.018;8.690;2022-09-16T18:56:21;100481.72;;;17.32;61.64
74856;BME280;63407;53.018;8.690;2022-09-16T18:58:47;100483.38;;;17.33;61.52
74856;BME280;63407;53.018;8.690;2022-09-16T19:01:30;100482.78;;;17.31;61.63